< Cyclone 197408 1974 Season Cyclone 197410 >
Cyclone 197409 (FIONA-GWENDA)
General InformationTrack Information on Google MapsDetailed Wind Information || ResourceGoogle EarthGE AnimationAtom FeedGeoJSON
Detalied Best Track (Time Zone = UTC)
Year Month Day Hour Lat. Long. Pressure (hPa) Wind (kt) Class Image Chart
1974 1 6 01 -14.4 125.3 997 30 2 -- --
1974 1 6 04 -14.4 125.0 996 30 2 -- --
1974 1 6 07 -14.4 124.6 995 30 2 -- --
1974 1 6 10 -14.4 124.3 995 30 2 -- --
1974 1 6 13 -14.4 124.0 996 30 2 -- --
1974 1 6 16 -14.5 123.7 996 30 2 -- --
1974 1 6 19 -14.6 123.4 994 35 3 -- --
1974 1 6 22 -14.7 123.2 994 35 3 -- --
1974 1 7 01 -14.8 123.1 994 40 3 -- --
1974 1 7 04 -14.9 123.0 992 40 3 -- --
1974 1 7 07 -15.0 122.9 990 40 3 -- --
1974 1 7 10 -15.1 122.9 990 40 3 -- --
1974 1 7 13 -15.2 122.9 990 45 3 -- --
1974 1 7 16 -15.3 122.9 989 45 3 -- --
1974 1 7 19 -15.5 122.9 988 50 4 -- --
1974 1 7 22 -15.6 123.0 988 50 4 -- --
1974 1 8 01 -15.8 123.0 988 50 4 -- --
1974 1 8 04 -16.0 123.0 985 50 4 -- --
1974 1 8 07 -16.2 123.0 982 55 4 -- --
1974 1 8 10 -16.4 123.0 983 55 4 -- --
1974 1 8 13 -16.6 123.0 984 50 4 -- --
1974 1 8 16 -16.8 123.1 985 45 3 -- --
1974 1 8 19 -17.0 123.1 985 35 3 -- --
1974 1 8 22 -17.2 123.2 986 35 3 -- --
1974 1 9 01 -17.4 123.2 988 30 2 -- --
1974 1 9 04 -17.7 123.1 988 30 2 -- --
1974 1 9 07 -17.9 122.8 988 30 2 -- --
1974 1 9 10 -18.1 122.5 989 30 2 -- --
1974 1 9 13 -18.1 122.2 990 30 2 -- --
1974 1 9 16 -18.2 121.6 991 30 2 -- --
1974 1 9 19 -18.2 121.0 992 40 3 -- --
1974 1 9 22 -18.2 120.4 993 40 3 -- --
1974 1 10 01 -18.2 119.8 994 40 3 -- --
1974 1 10 04 -18.1 119.4 992 40 3 -- --
1974 1 10 07 -18.2 118.9 990 40 3 -- --
1974 1 10 10 -18.2 118.4 990 40 3 -- --
1974 1 10 13 -18.3 117.9 990 40 3 -- --
1974 1 10 16 -18.4 117.4 989 50 4 -- --
1974 1 10 19 -18.6 116.8 988 50 4 -- --
1974 1 10 22 -19.0 116.1 988 50 4 -- --
1974 1 11 01 -19.1 115.7 988 50 4 -- --
1974 1 11 04 -19.1 115.1 988 50 4 -- --
1974 1 11 07 -19.1 114.5 988 50 4 -- --
1974 1 11 10 -19.2 114.0 990 45 3 -- --
1974 1 11 13 -19.2 113.5 992 40 3 -- --
1974 1 11 16 -19.2 113.0 994 35 3 -- --
1974 1 11 19 -19.1 112.5 996 30 2 -- --
1974 1 11 22 -19.0 111.9 997 30 2 -- --
1974 1 12 01 -18.8 111.3 997 30 2 -- --
1974 1 12 04 -18.6 110.5 997 30 2 -- --
1974 1 12 07 -18.4 109.8 997 30 2 -- --
1974 1 12 10 -18.2 109.1 998 30 2 -- --
1974 1 12 13 -18.0 108.3 999 30 2 -- --
1974 1 12 16 -17.7 107.6 999 30 2 -- --
1974 1 12 19 -17.4 106.8 1000 25 2 -- --
1974 1 12 22 -17.2 106.1 1001 25 2 -- --
1974 1 13 01 -17.0 105.5 1002 25 2 -- --
< Cyclone 197408 1974 Season Cyclone 197410 >

Help